首页
METAR-TAF:

METAR-TAF

机场 :

西安咸阳国际机场

西安, 中华人民共和国

纬度: 34-26N, 经度: 108-45E, 海拔: 479米

当前天气观测

该预报发布于29分钟前的21:00 UTC
风速2节,风向多变
温度 7°C
湿度 81%
气压 1023 hPa
能见度10公里或以上
1500米以下无云,无积雨云

METAR: ZLXY 222100Z VRB01MPS CAVOK 07/04 Q1023 NOSIG

时间: 05:29 (21:29 UTC)

预报

该预报发布于6小时和9分钟前的15:20 UTC
预报有效从22日的 18点(UTC)到 23日的 18点(UTC)
风速6节,风向东转东北
能見度: 3000

TAF: ZLXY 221520Z 2218/2318 06003MPS 3000 HZ NSC TX20/2307Z TN08/2222Z

超过4000个机场的气象观测和天气预报(METAR&TAF报告)。

可查询的气象台以黄色和红色小点在地图上表示。

将鼠标移到小点上方,可查看气象台名称。

然后点击查看天气观测和预报。

如需切换地图:点击带黑十字的绿色按钮放大地图;点击带横线的绿色按钮缩小地图;或者点击绿色箭头查看邻近地区的地图。


METAR-TAF: